sensor_id;sensor_type;location;lat;lon;timestamp;pressure;altitude;pressure_sealevel;temperature;humidity
5777;BME280;2914;42.668;23.346;2023-02-13T00:01:32;96214.51;;;2.73;90.69
5777;BME280;2914;42.668;23.346;2023-02-13T00:06:45;96210.92;;;2.50;92.52
5777;BME280;2914;42.668;23.346;2023-02-13T00:11:53;96219.02;;;2.56;92.20
5777;BME280;2914;42.668;23.346;2023-02-13T00:16:58;96216.88;;;2.67;92.40
5777;BME280;2914;42.668;23.346;2023-02-13T00:19:28;96214.09;;;2.60;92.28
5777;BME280;2914;42.668;23.346;2023-02-13T00:21:57;96222.64;;;2.63;92.14
5777;BME280;2914;42.668;23.346;2023-02-13T00:24:26;96226.00;;;2.67;91.92
5777;BME280;2914;42.668;23.346;2023-02-13T00:26:55;96231.56;;;2.69;91.28
5777;BME280;2914;42.668;23.346;2023-02-13T00:29:24;96221.86;;;2.73;91.46
5777;BME280;2914;42.668;23.346;2023-02-13T00:34:31;96224.12;;;3.67;100.00
5777;BME280;2914;42.668;23.346;2023-02-13T00:37:00;96229.42;;;3.30;100.00
5777;BME280;2914;42.668;23.346;2023-02-13T00:39:29;96231.84;;;3.22;100.00
5777;BME280;2914;42.668;23.346;2023-02-13T00:41:58;96231.16;;;3.05;98.79
5777;BME280;2914;42.668;23.346;2023-02-13T00:47:10;96226.67;;;2.97;94.26
5777;BME280;2914;42.668;23.346;2023-02-13T00:49:41;96233.19;;;2.97;93.30
5777;BME280;2914;42.668;23.346;2023-02-13T00:52:10;96235.86;;;2.96;93.03
5777;BME280;2914;42.668;23.346;2023-02-13T00:54:39;96239.36;;;2.95;92.47
5777;BME280;2914;42.668;23.346;2023-02-13T00:57:08;96242.72;;;2.98;92.13
5777;BME280;2914;42.668;23.346;2023-02-13T00:59:37;96240.17;;;2.97;91.57
5777;BME280;2914;42.668;23.346;2023-02-13T01:02:06;96237.59;;;2.95;91.93
5777;BME280;2914;42.668;23.346;2023-02-13T01:04:35;96244.02;;;2.98;90.79
5777;BME280;2914;42.668;23.346;2023-02-13T01:07:04;96247.99;;;2.97;90.47
5777;BME280;2914;42.668;23.346;2023-02-13T01:09:34;96245.47;;;2.82;91.04
5777;BME280;2914;42.668;23.346;2023-02-13T01:12:03;96245.00;;;2.82;91.77
5777;BME280;2914;42.668;23.346;2023-02-13T01:14:32;96240.08;;;2.86;91.29
5777;BME280;2914;42.668;23.346;2023-02-13T01:17:01;96235.77;;;2.85;91.38
5777;BME280;2914;42.668;23.346;2023-02-13T01:19:30;96238.13;;;2.68;92.27
5777;BME280;2914;42.668;23.346;2023-02-13T01:22:00;96240.39;;;2.65;93.18
5777;BME280;2914;42.668;23.346;2023-02-13T01:24:30;96243.24;;;2.58;93.62
5777;BME280;2914;42.668;23.346;2023-02-13T01:27:00;96241.94;;;2.58;94.13
5777;BME280;2914;42.668;23.346;2023-02-13T01:29:29;96248.69;;;2.63;94.44
5777;BME280;2914;42.668;23.346;2023-02-13T01:31:59;96239.03;;;2.53;94.79
5777;BME280;2914;42.668;23.346;2023-02-13T01:34:29;96246.09;;;2.50;95.17
5777;BME280;2914;42.668;23.346;2023-02-13T01:36:57;96246.09;;;2.50;95.52
5777;BME280;2914;42.668;23.346;2023-02-13T01:42:15;96252.53;;;2.53;95.83
5777;BME280;2914;42.668;23.346;2023-02-13T01:47:38;96246.77;;;2.30;97.61
5777;BME280;2914;42.668;23.346;2023-02-13T01:50:05;96250.68;;;2.30;97.74
5777;BME280;2914;42.668;23.346;2023-02-13T01:52:34;96250.41;;;2.37;97.55
5777;BME280;2914;42.668;23.346;2023-02-13T01:55:05;96256.08;;;2.37;97.60
5777;BME280;2914;42.668;23.346;2023-02-13T01:57:35;96258.63;;;2.38;97.50
5777;BME280;2914;42.668;23.346;2023-02-13T02:00:07;96255.43;;;2.44;97.54
5777;BME280;2914;42.668;23.346;2023-02-13T02:02:40;96262.00;;;2.56;96.95
5777;BME280;2914;42.668;23.346;2023-02-13T02:05:10;96253.53;;;2.49;97.06
5777;BME280;2914;42.668;23.346;2023-02-13T02:10:13;96261.23;;;2.65;96.23
5777;BME280;2914;42.668;23.346;2023-02-13T02:15:37;96247.91;;;2.61;99.40
5777;BME280;2914;42.668;23.346;2023-02-13T02:36:24;96243.30;;;2.43;96.90
5777;BME280;2914;42.668;23.346;2023-02-13T02:39:01;96252.56;;;2.11;97.82
5777;BME280;2914;42.668;23.346;2023-02-13T02:41:36;96253.63;;;2.19;98.38
5777;BME280;2914;42.668;23.346;2023-02-13T02:44:16;96265.11;;;2.27;98.17
5777;BME280;2914;42.668;23.346;2023-02-13T02:46:55;96267.61;;;2.30;97.67
5777;BME280;2914;42.668;23.346;2023-02-13T02:49:44;96266.05;;;2.24;98.04
5777;BME280;2914;42.668;23.346;2023-02-13T02:52:33;96273.92;;;2.23;98.08
5777;BME280;2914;42.668;23.346;2023-02-13T02:55:04;96278.51;;;2.28;98.06
5777;BME280;2914;42.668;23.346;2023-02-13T02:57:36;96286.19;;;2.32;97.68
5777;BME280;2914;42.668;23.346;2023-02-13T03:00:24;96279.16;;;2.34;97.30
5777;BME280;2914;42.668;23.346;2023-02-13T03:03:16;96288.11;;;2.12;97.64
5777;BME280;2914;42.668;23.346;2023-02-13T03:06:05;96284.82;;;2.20;97.55
5777;BME280;2914;42.668;23.346;2023-02-13T03:08:39;96284.73;;;2.37;97.32
5777;BME280;2914;42.668;23.346;2023-02-13T03:11:28;96283.78;;;2.40;96.90
5777;BME280;2914;42.668;23.346;2023-02-13T03:14:17;96280.22;;;2.29;96.46
5777;BME280;2914;42.668;23.346;2023-02-13T03:16:47;96282.59;;;2.36;96.58
5777;BME280;2914;42.668;23.346;2023-02-13T03:19:42;96278.70;;;2.48;95.94
5777;BME280;2914;42.668;23.346;2023-02-13T03:22:38;96278.88;;;2.57;95.64
5777;BME280;2914;42.668;23.346;2023-02-13T03:25:11;96279.42;;;2.53;95.45
5777;BME280;2914;42.668;23.346;2023-02-13T03:27:45;96286.69;;;2.57;95.54
5777;BME280;2914;42.668;23.346;2023-02-13T03:30:39;96277.98;;;2.45;95.74
5777;BME280;2914;42.668;23.346;2023-02-13T03:33:17;96279.11;;;2.36;95.99
5777;BME280;2914;42.668;23.346;2023-02-13T03:38:29;96287.52;;;2.44;96.22
5777;BME280;2914;42.668;23.346;2023-02-13T03:41:02;96281.42;;;2.45;95.83
5777;BME280;2914;42.668;23.346;2023-02-13T03:43:55;96284.16;;;2.54;95.91
5777;BME280;2914;42.668;23.346;2023-02-13T03:46:26;96284.81;;;2.61;95.12
5777;BME280;2914;42.668;23.346;2023-02-13T03:48:57;96278.95;;;2.54;94.90
5777;BME280;2914;42.668;23.346;2023-02-13T03:51:49;96278.33;;;2.47;95.59
5777;BME280;2914;42.668;23.346;2023-02-13T03:54:22;96283.97;;;2.33;96.56
5777;BME280;2914;42.668;23.346;2023-02-13T03:57:11;96282.36;;;2.29;97.23
5777;BME280;2914;42.668;23.346;2023-02-13T04:00:01;96280.16;;;2.30;96.65
5777;BME280;2914;42.668;23.346;2023-02-13T04:02:33;96277.16;;;2.29;96.31
5777;BME280;2914;42.668;23.346;2023-02-13T04:05:07;96284.88;;;2.19;96.48
5777;BME280;2914;42.668;23.346;2023-02-13T04:07:37;96279.20;;;2.19;96.72
5777;BME280;2914;42.668;23.346;2023-02-13T04:10:09;96279.11;;;2.36;96.22
5777;BME280;2914;42.668;23.346;2023-02-13T04:15:28;96281.97;;;2.55;94.74
5777;BME280;2914;42.668;23.346;2023-02-13T04:18:02;96283.22;;;2.57;94.22
5777;BME280;2914;42.668;23.346;2023-02-13T04:20:33;96284.03;;;2.59;94.06
5777;BME280;2914;42.668;23.346;2023-02-13T04:23:06;96281.27;;;2.63;93.20
5777;BME280;2914;42.668;23.346;2023-02-13T04:25:36;96284.87;;;2.59;93.33
5777;BME280;2914;42.668;23.346;2023-02-13T04:28:06;96293.63;;;2.70;93.31
5777;BME280;2914;42.668;23.346;2023-02-13T04:30:35;96296.34;;;2.80;92.75
5777;BME280;2914;42.668;23.346;2023-02-13T04:33:04;96292.56;;;2.89;92.20
5777;BME280;2914;42.668;23.346;2023-02-13T04:35:34;96298.72;;;3.00;91.30
5777;BME280;2914;42.668;23.346;2023-02-13T04:38:03;96287.82;;;3.00;91.10
5777;BME280;2914;42.668;23.346;2023-02-13T04:43:09;96290.23;;;3.07;90.45
5777;BME280;2914;42.668;23.346;2023-02-13T04:50:56;96279.80;;;3.18;89.83
5777;BME280;2914;42.668;23.346;2023-02-13T04:53:25;96279.69;;;3.10;90.08
5777;BME280;2914;42.668;23.346;2023-02-13T04:55:54;96286.78;;;3.18;89.12
5777;BME280;2914;42.668;23.346;2023-02-13T04:58:23;96298.28;;;3.24;88.25
5777;BME280;2914;42.668;23.346;2023-02-13T05:03:36;96301.32;;;2.61;89.41
5777;BME280;2914;42.668;23.346;2023-02-13T05:08:43;96301.58;;;2.79;88.47
5777;BME280;2914;42.668;23.346;2023-02-13T05:13:49;96309.56;;;2.87;88.31
5777;BME280;2914;42.668;23.346;2023-02-13T05:16:18;96316.90;;;2.76;88.22
5777;BME280;2914;42.668;23.346;2023-02-13T05:18:47;96310.92;;;2.73;88.24
5777;BME280;2914;42.668;23.346;2023-02-13T05:21:16;96319.45;;;2.64;88.25
5777;BME280;2914;42.668;23.346;2023-02-13T05:26:40;96321.86;;;2.57;86.67
5777;BME280;2914;42.668;23.346;2023-02-13T05:29:10;96332.82;;;2.53;87.10
5777;BME280;2914;42.668;23.346;2023-02-13T05:31:51;96318.30;;;2.46;87.22
5777;BME280;2914;42.668;23.346;2023-02-13T05:34:21;96326.00;;;2.23;87.83
5777;BME280;2914;42.668;23.346;2023-02-13T05:36:50;96327.50;;;2.30;87.50
5777;BME280;2914;42.668;23.346;2023-02-13T05:39:20;96326.55;;;2.04;88.66
5777;BME280;2914;42.668;23.346;2023-02-13T05:41:49;96334.98;;;1.67;90.25
5777;BME280;2914;42.668;23.346;2023-02-13T05:44:18;96327.63;;;1.52;92.51
5777;BME280;2914;42.668;23.346;2023-02-13T05:46:47;96338.24;;;1.61;92.40
5777;BME280;2914;42.668;23.346;2023-02-13T05:49:17;96340.16;;;1.54;92.74
5777;BME280;2914;42.668;23.346;2023-02-13T05:51:46;96336.97;;;1.74;91.95
5777;BME280;2914;42.668;23.346;2023-02-13T05:56:53;96337.20;;;1.51;93.32
5777;BME280;2914;42.668;23.346;2023-02-13T05:59:22;96343.98;;;1.72;92.30
5777;BME280;2914;42.668;23.346;2023-02-13T06:01:51;96340.75;;;1.64;92.26
5777;BME280;2914;42.668;23.346;2023-02-13T06:04:21;96344.55;;;1.67;92.54
5777;BME280;2914;42.668;23.346;2023-02-13T06:06:50;96332.85;;;1.82;91.33
5777;BME280;2914;42.668;23.346;2023-02-13T06:09:19;96347.92;;;1.56;92.39
5777;BME280;2914;42.668;23.346;2023-02-13T06:14:26;96355.23;;;1.73;92.83
5777;BME280;2914;42.668;23.346;2023-02-13T06:16:55;96350.06;;;1.56;92.99
5777;BME280;2914;42.668;23.346;2023-02-13T06:19:24;96351.47;;;1.68;93.15
5777;BME280;2914;42.668;23.346;2023-02-13T06:24:30;96357.02;;;1.56;93.62
5777;BME280;2914;42.668;23.346;2023-02-13T06:29:43;96354.17;;;1.65;93.08
5777;BME280;2914;42.668;23.346;2023-02-13T06:32:12;96358.20;;;1.75;93.00
5777;BME280;2914;42.668;23.346;2023-02-13T06:34:41;96360.30;;;1.92;92.09
5777;BME280;2914;42.668;23.346;2023-02-13T06:37:10;96369.50;;;2.04;91.32
5777;BME280;2914;42.668;23.346;2023-02-13T06:39:39;96366.68;;;2.12;90.63
5777;BME280;2914;42.668;23.346;2023-02-13T06:42:09;96363.98;;;2.15;90.21
5777;BME280;2914;42.668;23.346;2023-02-13T06:44:38;96370.08;;;1.99;90.91
5777;BME280;2914;42.668;23.346;2023-02-13T06:47:07;96370.44;;;2.16;90.44
5777;BME280;2914;42.668;23.346;2023-02-13T06:49:36;96371.88;;;2.27;89.46
5777;BME280;2914;42.668;23.346;2023-02-13T06:52:05;96371.67;;;2.33;89.08
5777;BME280;2914;42.668;23.346;2023-02-13T06:54:34;96374.00;;;2.42;88.39
5777;BME280;2914;42.668;23.346;2023-02-13T06:57:04;96372.23;;;2.43;87.95
5777;BME280;2914;42.668;23.346;2023-02-13T06:59:33;96366.92;;;2.46;87.83
5777;BME280;2914;42.668;23.346;2023-02-13T07:02:02;96364.37;;;2.44;88.16
5777;BME280;2914;42.668;23.346;2023-02-13T07:04:31;96366.48;;;2.46;88.51
5777;BME280;2914;42.668;23.346;2023-02-13T07:07:00;96361.07;;;2.52;89.08
5777;BME280;2914;42.668;23.346;2023-02-13T07:12:10;96352.87;;;2.92;91.78
5777;BME280;2914;42.668;23.346;2023-02-13T07:14:39;96350.49;;;3.11;100.00
5777;BME280;2914;42.668;23.346;2023-02-13T07:19:52;96354.56;;;3.31;97.41
5777;BME280;2914;42.668;23.346;2023-02-13T07:22:21;96364.24;;;3.28;89.57
5777;BME280;2914;42.668;23.346;2023-02-13T07:24:49;96366.07;;;3.26;86.12
5777;BME280;2914;42.668;23.346;2023-02-13T07:27:18;96370.58;;;3.20;84.99
5777;BME280;2914;42.668;23.346;2023-02-13T07:29:48;96370.19;;;3.06;85.39
5777;BME280;2914;42.668;23.346;2023-02-13T07:32:17;96368.10;;;2.91;90.71
5777;BME280;2914;42.668;23.346;2023-02-13T07:34:46;96369.45;;;2.89;91.88
5777;BME280;2914;42.668;23.346;2023-02-13T07:37:15;96375.13;;;2.75;91.03
5777;BME280;2914;42.668;23.346;2023-02-13T07:39:44;96378.69;;;2.86;91.03
5777;BME280;2914;42.668;23.346;2023-02-13T07:42:13;96375.73;;;2.83;89.74
5777;BME280;2914;42.668;23.346;2023-02-13T07:44:42;96374.20;;;2.89;88.53
5777;BME280;2914;42.668;23.346;2023-02-13T07:47:11;96368.39;;;3.08;90.99
5777;BME280;2914;42.668;23.346;2023-02-13T07:49:40;96367.63;;;3.04;89.39
5777;BME280;2914;42.668;23.346;2023-02-13T07:52:09;96370.30;;;3.03;88.70
5777;BME280;2914;42.668;23.346;2023-02-13T07:54:38;96371.44;;;3.08;88.73
5777;BME280;2914;42.668;23.346;2023-02-13T07:57:09;96366.45;;;3.27;89.62
5777;BME280;2914;42.668;23.346;2023-02-13T07:59:38;96371.81;;;3.35;87.59
5777;BME280;2914;42.668;23.346;2023-02-13T08:02:10;96369.88;;;3.40;86.60
5777;BME280;2914;42.668;23.346;2023-02-13T08:04:40;96371.64;;;3.40;85.84
5777;BME280;2914;42.668;23.346;2023-02-13T08:07:12;96371.47;;;3.33;86.03
5777;BME280;2914;42.668;23.346;2023-02-13T08:09:43;96370.47;;;3.23;85.89
5777;BME280;2914;42.668;23.346;2023-02-13T08:12:30;96365.37;;;3.32;87.44
5777;BME280;2914;42.668;23.346;2023-02-13T08:17:38;96363.64;;;3.45;87.48
5777;BME280;2914;42.668;23.346;2023-02-13T08:20:09;96362.54;;;3.52;88.25
5777;BME280;2914;42.668;23.346;2023-02-13T08:22:39;96366.56;;;3.61;86.30
5777;BME280;2914;42.668;23.346;2023-02-13T08:25:08;96366.39;;;3.53;84.70
5777;BME280;2914;42.668;23.346;2023-02-13T08:27:38;96365.94;;;3.42;84.50
5777;BME280;2914;42.668;23.346;2023-02-13T08:30:10;96362.77;;;3.32;85.27
5777;BME280;2914;42.668;23.346;2023-02-13T08:32:39;96357.80;;;3.13;85.46
5777;BME280;2914;42.668;23.346;2023-02-13T08:35:08;96363.42;;;3.14;86.24
5777;BME280;2914;42.668;23.346;2023-02-13T08:37:37;96367.98;;;3.20;85.74
5777;BME280;2914;42.668;23.346;2023-02-13T08:40:09;96363.84;;;3.01;86.63
5777;BME280;2914;42.668;23.346;2023-02-13T08:42:38;96363.70;;;2.93;87.30
5777;BME280;2914;42.668;23.346;2023-02-13T08:45:10;96369.40;;;2.77;88.13
5777;BME280;2914;42.668;23.346;2023-02-13T08:47:39;96375.84;;;2.80;87.85
5777;BME280;2914;42.668;23.346;2023-02-13T08:50:09;96373.61;;;2.81;87.87
5777;BME280;2914;42.668;23.346;2023-02-13T08:52:38;96365.44;;;2.79;88.21
5777;BME280;2914;42.668;23.346;2023-02-13T08:55:08;96369.31;;;2.67;88.87
5777;BME280;2914;42.668;23.346;2023-02-13T08:57:37;96370.45;;;2.71;89.03
5777;BME280;2914;42.668;23.346;2023-02-13T09:00:08;96374.61;;;2.50;89.38
5777;BME280;2914;42.668;23.346;2023-02-13T09:02:37;96374.70;;;2.61;89.79
5777;BME280;2914;42.668;23.346;2023-02-13T09:05:07;96364.16;;;2.65;89.38
5777;BME280;2914;42.668;23.346;2023-02-13T09:07:36;96375.48;;;2.78;89.16
5777;BME280;2914;42.668;23.346;2023-02-13T09:10:07;96368.10;;;2.91;88.36
5777;BME280;2914;42.668;23.346;2023-02-13T09:12:36;96364.48;;;2.95;87.97
5777;BME280;2914;42.668;23.346;2023-02-13T09:15:06;96364.31;;;3.13;87.57
5777;BME280;2914;42.668;23.346;2023-02-13T09:17:35;96372.80;;;3.06;87.22
5777;BME280;2914;42.668;23.346;2023-02-13T09:20:07;96365.56;;;3.14;87.37
5777;BME280;2914;42.668;23.346;2023-02-13T09:22:36;96358.84;;;3.20;87.01
5777;BME280;2914;42.668;23.346;2023-02-13T09:25:06;96361.77;;;3.11;86.67
5777;BME280;2914;42.668;23.346;2023-02-13T09:27:36;96360.09;;;3.22;86.34
5777;BME280;2914;42.668;23.346;2023-02-13T09:30:08;96362.47;;;3.28;86.47
5777;BME280;2914;42.668;23.346;2023-02-13T09:32:37;96358.19;;;3.39;86.28
5777;BME280;2914;42.668;23.346;2023-02-13T09:35:08;96351.67;;;3.39;86.11
5777;BME280;2914;42.668;23.346;2023-02-13T09:37:37;96350.02;;;3.36;86.19
5777;BME280;2914;42.668;23.346;2023-02-13T09:40:19;96348.51;;;3.43;85.61
5777;BME280;2914;42.668;23.346;2023-02-13T09:42:49;96349.44;;;3.53;85.03
5777;BME280;2914;42.668;23.346;2023-02-13T09:45:20;96347.56;;;3.69;84.72
5777;BME280;2914;42.668;23.346;2023-02-13T09:47:50;96339.10;;;3.62;85.12
5777;BME280;2914;42.668;23.346;2023-02-13T09:50:21;96340.20;;;3.68;84.58
5777;BME280;2914;42.668;23.346;2023-02-13T09:52:53;96337.75;;;3.76;84.40
5777;BME280;2914;42.668;23.346;2023-02-13T09:55:26;96340.81;;;3.87;84.29
5777;BME280;2914;42.668;23.346;2023-02-13T10:00:43;96327.48;;;3.95;83.33
5777;BME280;2914;42.668;23.346;2023-02-13T10:03:22;96332.48;;;3.89;84.16
5777;BME280;2914;42.668;23.346;2023-02-13T10:05:57;96329.67;;;3.82;84.52
5777;BME280;2914;42.668;23.346;2023-02-13T10:14:19;96308.95;;;4.01;84.51
5777;BME280;2914;42.668;23.346;2023-02-13T10:16:52;96307.23;;;4.12;84.48
5777;BME280;2914;42.668;23.346;2023-02-13T10:19:29;96301.19;;;4.21;83.22
5777;BME280;2914;42.668;23.346;2023-02-13T10:22:03;96304.05;;;4.37;82.91
5777;BME280;2914;42.668;23.346;2023-02-13T10:27:22;96290.49;;;4.60;81.11
5777;BME280;2914;42.668;23.346;2023-02-13T10:29:55;96289.92;;;4.64;80.38
5777;BME280;2914;42.668;23.346;2023-02-13T10:32:49;96280.20;;;4.67;79.90
5777;BME280;2914;42.668;23.346;2023-02-13T10:35:25;96278.42;;;4.68;79.18
5777;BME280;2914;42.668;23.346;2023-02-13T10:37:56;96275.41;;;4.56;78.86
5777;BME280;2914;42.668;23.346;2023-02-13T10:40:31;96277.22;;;4.54;79.74
5777;BME280;2914;42.668;23.346;2023-02-13T10:43:04;96267.39;;;4.71;79.82
5777;BME280;2914;42.668;23.346;2023-02-13T10:45:45;96270.98;;;4.69;80.00
5777;BME280;2914;42.668;23.346;2023-02-13T10:48:31;96260.91;;;4.59;79.69
5777;BME280;2914;42.668;23.346;2023-02-13T10:51:04;96254.44;;;4.58;79.15
5777;BME280;2914;42.668;23.346;2023-02-13T10:53:42;96251.02;;;4.56;79.39
5777;BME280;2914;42.668;23.346;2023-02-13T10:59:23;96243.61;;;4.67;79.34
5777;BME280;2914;42.668;23.346;2023-02-13T11:01:54;96243.61;;;4.67;78.95
5777;BME280;2914;42.668;23.346;2023-02-13T11:04:24;96245.09;;;4.63;79.08
5777;BME280;2914;42.668;23.346;2023-02-13T11:06:56;96242.30;;;4.67;78.27
5777;BME280;2914;42.668;23.346;2023-02-13T11:09:29;96236.73;;;4.75;77.41
5777;BME280;2914;42.668;23.346;2023-02-13T11:12:04;96235.24;;;4.80;76.98
5777;BME280;2914;42.668;23.346;2023-02-13T11:14:29;96236.88;;;4.82;76.49
5777;BME280;2914;42.668;23.346;2023-02-13T11:17:00;96225.94;;;4.72;75.88
5777;BME280;2914;42.668;23.346;2023-02-13T11:19:32;96222.94;;;4.82;76.13
5777;BME280;2914;42.668;23.346;2023-02-13T11:22:05;96223.80;;;4.82;76.54
5777;BME280;2914;42.668;23.346;2023-02-13T11:24:35;96216.59;;;4.87;77.16
5777;BME280;2914;42.668;23.346;2023-02-13T11:27:08;96210.05;;;4.98;76.50
5777;BME280;2914;42.668;23.346;2023-02-13T11:29:51;96204.80;;;5.08;75.37
5777;BME280;2914;42.668;23.346;2023-02-13T11:32:22;96202.66;;;5.07;75.38
5777;BME280;2914;42.668;23.346;2023-02-13T11:34:52;96198.55;;;5.02;75.29
5777;BME280;2914;42.668;23.346;2023-02-13T11:37:24;96182.95;;;5.19;75.28
5777;BME280;2914;42.668;23.346;2023-02-13T11:39:55;96187.05;;;5.25;75.05
5777;BME280;2914;42.668;23.346;2023-02-13T11:42:28;96180.54;;;5.34;75.09
5777;BME280;2914;42.668;23.346;2023-02-13T11:45:00;96173.67;;;5.31;74.39
5777;BME280;2914;42.668;23.346;2023-02-13T11:47:36;96179.16;;;5.35;73.72
5777;BME280;2914;42.668;23.346;2023-02-13T11:50:18;96169.03;;;5.47;73.76
5777;BME280;2914;42.668;23.346;2023-02-13T11:52:56;96159.21;;;5.33;74.36
5777;BME280;2914;42.668;23.346;2023-02-13T11:55:29;96153.23;;;5.39;74.12
5777;BME280;2914;42.668;23.346;2023-02-13T11:58:00;96147.34;;;5.44;74.05
5777;BME280;2914;42.668;23.346;2023-02-13T12:00:35;96141.52;;;5.48;73.51
5777;BME280;2914;42.668;23.346;2023-02-13T12:03:30;96133.91;;;5.52;73.19
5777;BME280;2914;42.668;23.346;2023-02-13T12:06:02;96130.90;;;5.60;71.87
5777;BME280;2914;42.668;23.346;2023-02-13T12:08:33;96131.06;;;5.66;71.25
5777;BME280;2914;42.668;23.346;2023-02-13T12:11:06;96124.39;;;5.69;69.37
5777;BME280;2914;42.668;23.346;2023-02-13T12:13:37;96129.80;;;5.74;69.18
5777;BME280;2914;42.668;23.346;2023-02-13T12:16:10;96124.80;;;5.78;68.67
5777;BME280;2914;42.668;23.346;2023-02-13T12:21:32;96126.42;;;5.90;67.52
5777;BME280;2914;42.668;23.346;2023-02-13T12:24:07;96120.59;;;5.93;67.74
5777;BME280;2914;42.668;23.346;2023-02-13T12:26:38;96118.64;;;5.97;67.40
5777;BME280;2914;42.668;23.346;2023-02-13T12:29:26;96115.92;;;6.09;73.29
5777;BME280;2914;42.668;23.346;2023-02-13T12:32:00;96110.77;;;6.07;66.98
5777;BME280;2914;42.668;23.346;2023-02-13T12:37:44;96115.13;;;6.07;64.80
5777;BME280;2914;42.668;23.346;2023-02-13T12:40:36;96111.52;;;6.01;64.09
5777;BME280;2914;42.668;23.346;2023-02-13T12:43:19;96108.64;;;5.97;64.07
5777;BME280;2914;42.668;23.346;2023-02-13T12:45:50;96106.10;;;5.95;63.16
5777;BME280;2914;42.668;23.346;2023-02-13T12:48:27;96093.92;;;5.94;62.54
5777;BME280;2914;42.668;23.346;2023-02-13T12:51:03;96087.20;;;5.97;62.33
5777;BME280;2914;42.668;23.346;2023-02-13T12:53:44;96088.27;;;6.03;62.66
5777;BME280;2914;42.668;23.346;2023-02-13T12:56:27;96085.63;;;6.12;61.98
5777;BME280;2914;42.668;23.346;2023-02-13T12:59:03;96081.02;;;6.17;60.95
5777;BME280;2914;42.668;23.346;2023-02-13T13:04:38;96075.37;;;6.16;61.19
5777;BME280;2914;42.668;23.346;2023-02-13T13:07:21;96080.31;;;6.14;61.00
5777;BME280;2914;42.668;23.346;2023-02-13T13:10:01;96074.86;;;6.18;60.38
5777;BME280;2914;42.668;23.346;2023-02-13T13:12:44;96075.39;;;6.07;60.57
5777;BME280;2914;42.668;23.346;2023-02-13T13:15:18;96071.91;;;6.07;60.79
5777;BME280;2914;42.668;23.346;2023-02-13T13:17:55;96074.67;;;6.13;60.51
5777;BME280;2914;42.668;23.346;2023-02-13T13:23:34;96055.50;;;6.12;60.81
5777;BME280;2914;42.668;23.346;2023-02-13T13:26:13;96056.52;;;6.01;60.92
5777;BME280;2914;42.668;23.346;2023-02-13T13:28:44;96057.91;;;5.99;61.19
5777;BME280;2914;42.668;23.346;2023-02-13T13:31:15;96048.72;;;6.08;61.15
5777;BME280;2914;42.668;23.346;2023-02-13T13:33:45;96054.80;;;6.08;61.05
5777;BME280;2914;42.668;23.346;2023-02-13T13:36:20;96049.03;;;6.10;61.20
5777;BME280;2914;42.668;23.346;2023-02-13T13:38:57;96046.95;;;6.17;60.82
5777;BME280;2914;42.668;23.346;2023-02-13T13:41:31;96049.73;;;6.14;60.91
5777;BME280;2914;42.668;23.346;2023-02-13T13:44:15;96047.39;;;6.17;60.90
5777;BME280;2914;42.668;23.346;2023-02-13T13:46:53;96046.31;;;6.21;60.94
5777;BME280;2914;42.668;23.346;2023-02-13T13:49:36;96049.41;;;6.20;60.38
5777;BME280;2914;42.668;23.346;2023-02-13T13:52:26;96038.86;;;6.13;60.26
5777;BME280;2914;42.668;23.346;2023-02-13T13:54:57;96050.96;;;6.16;60.70
5777;BME280;2914;42.668;23.346;2023-02-13T13:57:27;96051.19;;;6.20;60.66
5777;BME280;2914;42.668;23.346;2023-02-13T14:00:32;96039.70;;;6.14;60.92
5777;BME280;2914;42.668;23.346;2023-02-13T14:03:33;96043.69;;;6.21;60.84
5777;BME280;2914;42.668;23.346;2023-02-13T14:06:08;96040.71;;;6.20;60.61
5777;BME280;2914;42.668;23.346;2023-02-13T14:15:49;96036.98;;;6.33;61.04
5777;BME280;2914;42.668;23.346;2023-02-13T14:18:21;96035.22;;;6.24;61.31
5777;BME280;2914;42.668;23.346;2023-02-13T14:20:52;96031.13;;;6.27;60.99
5777;BME280;2914;42.668;23.346;2023-02-13T14:23:45;96032.30;;;6.22;60.97
5777;BME280;2914;42.668;23.346;2023-02-13T14:26:36;96025.88;;;6.27;61.12
5777;BME280;2914;42.668;23.346;2023-02-13T14:32:20;96017.16;;;6.36;61.58
5777;BME280;2914;42.668;23.346;2023-02-13T14:34:59;96009.07;;;6.32;61.20
5777;BME280;2914;42.668;23.346;2023-02-13T14:37:32;96009.07;;;6.32;61.20
5777;BME280;2914;42.668;23.346;2023-02-13T14:43:21;96009.85;;;6.34;61.31
5777;BME280;2914;42.668;23.346;2023-02-13T14:45:54;96013.00;;;6.32;61.43
5777;BME280;2914;42.668;23.346;2023-02-13T14:48:31;96013.31;;;6.34;61.69
5777;BME280;2914;42.668;23.346;2023-02-13T14:51:00;96005.92;;;6.34;61.59
5777;BME280;2914;42.668;23.346;2023-02-13T14:53:33;96014.39;;;6.30;61.71
5777;BME280;2914;42.668;23.346;2023-02-13T14:59:11;96000.98;;;6.27;61.63
5777;BME280;2914;42.668;23.346;2023-02-13T15:01:45;96005.25;;;6.21;61.96
5777;BME280;2914;42.668;23.346;2023-02-13T15:04:19;95999.70;;;6.19;61.93
5777;BME280;2914;42.668;23.346;2023-02-13T15:06:49;96008.63;;;6.23;62.08
5777;BME280;2914;42.668;23.346;2023-02-13T15:09:30;96007.76;;;6.32;61.60
5777;BME280;2914;42.668;23.346;2023-02-13T15:12:00;96007.67;;;6.33;62.07
5777;BME280;2914;42.668;23.346;2023-02-13T15:14:34;96006.84;;;6.33;62.09
5777;BME280;2914;42.668;23.346;2023-02-13T15:19:49;96002.66;;;6.37;62.02
5777;BME280;2914;42.668;23.346;2023-02-13T15:22:27;96007.98;;;6.36;61.75
5777;BME280;2914;42.668;23.346;2023-02-13T15:25:23;96013.75;;;6.51;68.41
5777;BME280;2914;42.668;23.346;2023-02-13T15:27:54;96014.48;;;6.28;65.05
5777;BME280;2914;42.668;23.346;2023-02-13T15:30:25;96015.40;;;6.27;62.17
5777;BME280;2914;42.668;23.346;2023-02-13T15:32:55;96013.11;;;6.13;62.38
5777;BME280;2914;42.668;23.346;2023-02-13T15:35:27;96012.66;;;6.13;62.23
5777;BME280;2914;42.668;23.346;2023-02-13T15:37:58;96018.34;;;6.13;62.37
5777;BME280;2914;42.668;23.346;2023-02-13T15:40:29;96011.12;;;6.09;62.11
5777;BME280;2914;42.668;23.346;2023-02-13T15:42:59;96013.69;;;6.02;62.53
5777;BME280;2914;42.668;23.346;2023-02-13T15:45:29;96019.52;;;6.07;62.44
5777;BME280;2914;42.668;23.346;2023-02-13T15:47:58;96023.90;;;5.80;63.15
5777;BME280;2914;42.668;23.346;2023-02-13T15:50:30;96023.11;;;5.78;63.44
5777;BME280;2914;42.668;23.346;2023-02-13T15:53:02;96022.65;;;5.70;63.90
5777;BME280;2914;42.668;23.346;2023-02-13T15:55:34;96025.14;;;5.73;63.74
5777;BME280;2914;42.668;23.346;2023-02-13T15:58:09;96029.91;;;5.65;64.08
5777;BME280;2914;42.668;23.346;2023-02-13T16:00:44;96025.03;;;5.66;64.00
5777;BME280;2914;42.668;23.346;2023-02-13T16:03:15;96026.27;;;5.67;64.02
5777;BME280;2914;42.668;23.346;2023-02-13T16:05:46;96030.34;;;5.64;64.12